createdAt,value
2023-03-29T00:01:07.552Z,71.70
2023-03-29T00:04:10.341Z,71.90
2023-03-29T00:07:14.274Z,72.40
2023-03-29T00:10:16.336Z,72.30
2023-03-29T00:13:18.689Z,73.00
2023-03-29T00:16:20.889Z,73.10
2023-03-29T00:19:23.200Z,73.60
2023-03-29T00:22:25.895Z,73.20
2023-03-29T00:25:27.998Z,73.20
2023-03-29T00:28:30.245Z,73.20
2023-03-29T00:31:32.455Z,73.40
2023-03-29T00:34:36.272Z,73.30
2023-03-29T00:37:39.759Z,73.60
2023-03-29T00:40:44.410Z,74.40
2023-03-29T00:44:04.696Z,75.00
2023-03-29T00:47:07.321Z,74.70
2023-03-29T00:50:16.988Z,75.20
2023-03-29T00:53:32.150Z,75.40
2023-03-29T00:56:38.758Z,76.40
2023-03-29T00:59:45.220Z,76.70
2023-03-29T01:02:51.203Z,76.00
2023-03-29T01:06:07.715Z,75.90
2023-03-29T01:09:14.729Z,76.30
2023-03-29T01:12:23.176Z,75.90
2023-03-29T01:15:28.312Z,76.60
2023-03-29T01:18:33.778Z,76.90
2023-03-29T01:21:43.814Z,76.70
2023-03-29T01:25:01.461Z,76.00
2023-03-29T01:28:10.104Z,76.40
2023-03-29T01:31:30.227Z,75.70
2023-03-29T01:34:43.859Z,75.90
2023-03-29T01:37:53.026Z,76.60
2023-03-29T01:40:55.148Z,75.30
2023-03-29T01:44:03.502Z,75.30
2023-03-29T01:47:34.278Z,74.90
2023-03-29T01:50:39.475Z,75.60
2023-03-29T01:53:50.310Z,75.00
2023-03-29T01:56:53.312Z,75.00
2023-03-29T01:59:57.918Z,75.00
2023-03-29T02:03:05.976Z,75.20
2023-03-29T02:06:15.625Z,75.10
2023-03-29T02:09:17.933Z,75.40
2023-03-29T02:12:20.884Z,75.50
2023-03-29T02:15:23.689Z,75.50
2023-03-29T02:18:26.372Z,75.80
2023-03-29T02:21:36.405Z,75.70
2023-03-29T02:24:41.033Z,76.10
2023-03-29T02:27:43.502Z,76.20
2023-03-29T02:30:57.236Z,76.70
2023-03-29T02:34:16.096Z,76.40
2023-03-29T02:37:20.259Z,76.60
2023-03-29T02:40:24.621Z,77.20
2023-03-29T02:43:32.588Z,77.00
2023-03-29T02:46:35.175Z,79.60
2023-03-29T02:49:37.262Z,82.20
2023-03-29T02:52:44.959Z,83.40
2023-03-29T02:55:48.784Z,83.80
2023-03-29T02:58:51.038Z,82.40
2023-03-29T03:01:53.735Z,81.90
2023-03-29T03:04:56.015Z,82.50
2023-03-29T03:07:58.610Z,86.10
2023-03-29T03:11:00.921Z,86.30
2023-03-29T03:14:03.164Z,85.40
2023-03-29T03:17:05.203Z,85.40
2023-03-29T03:20:13.320Z,86.00
2023-03-29T03:23:15.395Z,87.30
2023-03-29T03:26:18.292Z,90.80
2023-03-29T03:29:20.439Z,90.90
2023-03-29T03:32:22.948Z,91.30
2023-03-29T03:35:25.302Z,91.30
2023-03-29T03:38:29.508Z,90.90
2023-03-29T03:41:32.695Z,91.20
2023-03-29T03:44:34.721Z,91.10
2023-03-29T03:47:37.835Z,91.00
2023-03-29T03:50:40.850Z,91.10
2023-03-29T03:53:42.955Z,91.00
2023-03-29T03:56:47.518Z,90.70
2023-03-29T03:59:49.391Z,91.70
2023-03-29T04:02:54.424Z,91.70
2023-03-29T04:05:56.705Z,91.80
2023-03-29T04:08:59.847Z,91.80
2023-03-29T04:12:01.936Z,91.90
2023-03-29T04:15:04.643Z,92.10
2023-03-29T04:18:08.325Z,91.60
2023-03-29T04:21:12.202Z,91.70
2023-03-29T04:24:14.399Z,91.80
2023-03-29T04:27:16.641Z,92.00
2023-03-29T04:30:18.797Z,91.50
2023-03-29T04:33:21.376Z,91.60
2023-03-29T04:36:23.607Z,91.50
2023-03-29T04:39:33.137Z,91.60
2023-03-29T04:42:36.209Z,91.50
2023-03-29T04:45:38.552Z,91.50
2023-03-29T04:48:40.629Z,91.50
2023-03-29T04:51:44.197Z,91.70
2023-03-29T04:54:46.378Z,91.20
2023-03-29T04:57:48.427Z,91.00
2023-03-29T05:00:51.672Z,90.90
2023-03-29T05:03:55.156Z,91.90
2023-03-29T05:06:57.912Z,92.10
2023-03-29T05:10:00.024Z,91.90
2023-03-29T05:13:06.202Z,92.30
2023-03-29T05:16:08.946Z,92.20
2023-03-29T05:19:11.557Z,91.90
2023-03-29T05:22:14.281Z,92.20
2023-03-29T05:25:17.659Z,92.10
2023-03-29T05:28:19.944Z,92.00
2023-03-29T05:31:22.982Z,92.60
2023-03-29T05:34:25.743Z,92.50
2023-03-29T05:37:28.647Z,92.20
2023-03-29T05:40:32.171Z,92.50
2023-03-29T05:43:35.050Z,92.60
2023-03-29T05:46:37.036Z,92.60
2023-03-29T05:49:39.355Z,92.60
2023-03-29T05:52:41.435Z,92.80
2023-03-29T05:55:44.335Z,92.70
2023-03-29T05:58:46.853Z,92.80
2023-03-29T06:01:48.890Z,92.90
2023-03-29T06:04:51.983Z,92.80
2023-03-29T06:07:54.040Z,92.70
2023-03-29T06:11:05.378Z,92.50
2023-03-29T06:14:08.658Z,92.40
2023-03-29T06:17:10.914Z,92.10
2023-03-29T06:20:13.801Z,92.00
2023-03-29T06:23:15.854Z,92.30
2023-03-29T06:26:20.145Z,92.30
2023-03-29T06:29:22.323Z,92.50
2023-03-29T06:32:24.470Z,92.70
2023-03-29T06:35:27.174Z,92.50
2023-03-29T06:38:29.304Z,92.60
2023-03-29T06:41:32.675Z,93.00
2023-03-29T06:44:34.796Z,93.20
2023-03-29T06:47:36.900Z,93.50
2023-03-29T06:50:39.001Z,93.80
2023-03-29T06:53:41.581Z,94.20
2023-03-29T06:56:43.886Z,94.50
2023-03-29T06:59:46.683Z,94.60
2023-03-29T07:02:49.663Z,94.40
2023-03-29T07:05:53.127Z,94.00
2023-03-29T07:08:59.708Z,93.60
2023-03-29T07:12:01.785Z,92.30
2023-03-29T07:15:04.712Z,91.60
2023-03-29T07:18:08.383Z,91.80
2023-03-29T07:21:12.433Z,91.30
2023-03-29T07:24:14.691Z,90.70
2023-03-29T07:27:23.820Z,90.40
2023-03-29T07:30:31.012Z,89.60
2023-03-29T07:33:34.785Z,87.90
2023-03-29T07:36:38.697Z,86.20
2023-03-29T07:39:40.854Z,84.30
2023-03-29T07:42:44.205Z,83.30
2023-03-29T07:45:46.858Z,82.50
2023-03-29T07:48:48.924Z,80.70
2023-03-29T07:51:55.117Z,79.00
2023-03-29T07:54:57.583Z,77.20
2023-03-29T07:57:59.856Z,76.10
2023-03-29T08:01:02.081Z,74.40
2023-03-29T08:04:04.970Z,74.10
2023-03-29T08:07:07.244Z,72.70
2023-03-29T08:10:17.631Z,70.00
2023-03-29T08:13:19.760Z,69.30
2023-03-29T08:16:21.879Z,68.20
2023-03-29T08:19:23.935Z,68.90
2023-03-29T08:22:26.026Z,69.70
2023-03-29T08:25:28.026Z,66.40
2023-03-29T08:28:30.985Z,63.40
2023-03-29T08:31:33.786Z,61.90
2023-03-29T08:34:36.287Z,57.80
2023-03-29T08:37:38.390Z,58.10
2023-03-29T08:40:40.661Z,55.10
2023-03-29T08:44:16.276Z,55.20
2023-03-29T08:47:41.705Z,57.10
2023-03-29T08:50:59.069Z,59.90
2023-03-29T08:54:47.522Z,58.30
2023-03-29T08:57:51.774Z,57.80
2023-03-29T09:00:56.970Z,58.20
2023-03-29T09:04:16.698Z,55.80
2023-03-29T09:07:18.896Z,55.50
2023-03-29T09:10:29.707Z,56.80
2023-03-29T09:13:34.514Z,56.40
2023-03-29T09:16:50.466Z,55.60
2023-03-29T09:20:07.498Z,52.70
2023-03-29T09:23:18.917Z,53.80
2023-03-29T09:26:38.342Z,51.60
2023-03-29T09:29:47.001Z,53.90
2023-03-29T09:33:06.160Z,53.10
2023-03-29T09:36:18.079Z,51.50
2023-03-29T09:39:22.273Z,54.00
2023-03-29T09:42:27.911Z,53.80
2023-03-29T09:45:30.493Z,54.30
2023-03-29T09:48:37.988Z,53.20
2023-03-29T09:51:42.196Z,51.70
2023-03-29T09:54:44.606Z,52.60
2023-03-29T09:57:46.962Z,53.10
2023-03-29T10:00:50.216Z,54.40
2023-03-29T10:03:53.644Z,56.20
2023-03-29T10:06:56.045Z,57.30
2023-03-29T10:09:58.053Z,57.80
2023-03-29T10:13:04.374Z,59.00
2023-03-29T10:16:09.376Z,59.10
2023-03-29T10:19:22.568Z,56.30
2023-03-29T10:22:29.859Z,53.70
2023-03-29T10:25:34.053Z,52.20
2023-03-29T10:28:38.094Z,46.00
2023-03-29T10:31:42.778Z,44.50
2023-03-29T10:34:47.877Z,43.60
2023-03-29T10:37:53.178Z,39.60
2023-03-29T10:41:04.264Z,37.80
2023-03-29T10:44:06.936Z,41.90
2023-03-29T10:47:20.871Z,41.90
2023-03-29T10:50:23.057Z,44.10
2023-03-29T10:53:32.580Z,42.70
2023-03-29T10:56:45.266Z,41.70
2023-03-29T11:00:23.815Z,37.70
2023-03-29T11:03:50.535Z,35.40
2023-03-29T11:07:00.845Z,31.20
2023-03-29T11:10:35.053Z,30.90
2023-03-29T11:13:53.921Z,30.30
2023-03-29T11:17:21.071Z,31.50
2023-03-29T11:20:33.537Z,30.40
2023-03-29T11:24:08.943Z,30.60
2023-03-29T11:27:10.928Z,30.40
2023-03-29T11:30:25.289Z,29.80
2023-03-29T11:33:47.890Z,31.30
2023-03-29T11:36:55.831Z,31.60
2023-03-29T11:40:15.344Z,31.90
2023-03-29T11:43:32.242Z,32.30
2023-03-29T11:46:41.726Z,30.70
2023-03-29T11:50:25.915Z,38.10
2023-03-29T11:53:42.795Z,39.90
2023-03-29T11:56:50.135Z,41.90
2023-03-29T12:00:05.471Z,41.90
2023-03-29T12:03:15.530Z,44.90
2023-03-29T12:06:23.148Z,44.00
2023-03-29T12:09:38.196Z,49.00
2023-03-29T12:12:55.492Z,51.00
2023-03-29T12:16:02.854Z,52.80
2023-03-29T12:19:40.292Z,52.50
2023-03-29T12:22:47.284Z,51.40
2023-03-29T12:26:04.529Z,51.90
2023-03-29T12:29:38.103Z,52.30
2023-03-29T12:33:22.128Z,51.80
2023-03-29T12:37:00.834Z,52.20
2023-03-29T12:40:22.917Z,53.40
2023-03-29T12:43:31.098Z,54.00
2023-03-29T12:46:34.661Z,53.40
2023-03-29T12:49:39.156Z,52.70
2023-03-29T12:52:42.986Z,53.60
2023-03-29T12:55:45.010Z,54.30
2023-03-29T12:59:06.708Z,53.50
2023-03-29T13:02:14.703Z,54.40
2023-03-29T13:05:35.138Z,54.60
2023-03-29T13:08:44.181Z,55.30
2023-03-29T13:12:19.326Z,55.30
2023-03-29T13:15:25.356Z,54.70
2023-03-29T13:18:49.377Z,55.00
2023-03-29T13:22:10.509Z,53.70
2023-03-29T13:25:50.465Z,54.70
2023-03-29T13:29:37.199Z,55.50
2023-03-29T13:32:57.562Z,55.50
2023-03-29T13:36:02.445Z,56.90
2023-03-29T13:39:07.310Z,57.30
2023-03-29T13:42:47.264Z,58.30
2023-03-29T13:45:58.483Z,59.60
2023-03-29T13:49:20.976Z,59.20
2023-03-29T13:52:39.364Z,57.70
2023-03-29T13:55:59.928Z,59.00
2023-03-29T13:59:18.978Z,58.80
2023-03-29T14:03:08.641Z,60.00
2023-03-29T14:06:14.607Z,60.30
2023-03-29T14:09:19.206Z,59.90
2023-03-29T14:12:21.477Z,59.80
2023-03-29T14:15:26.972Z,59.80
2023-03-29T14:18:42.520Z,61.10
2023-03-29T14:21:46.134Z,61.10
2023-03-29T14:24:53.211Z,60.80
2023-03-29T14:27:55.587Z,60.70
2023-03-29T14:30:57.632Z,61.00
2023-03-29T14:34:01.479Z,60.80
2023-03-29T14:37:04.362Z,61.40
2023-03-29T14:40:15.528Z,61.40
2023-03-29T14:43:27.233Z,61.40
2023-03-29T14:46:30.001Z,61.40
2023-03-29T14:49:32.570Z,61.20
2023-03-29T14:52:35.184Z,62.10
2023-03-29T14:55:38.969Z,62.30
2023-03-29T14:58:46.753Z,60.80
2023-03-29T15:01:48.968Z,62.30
2023-03-29T15:05:04.911Z,62.80
2023-03-29T15:08:12.895Z,62.90
2023-03-29T15:11:27.456Z,62.90
2023-03-29T15:14:38.207Z,63.20
2023-03-29T15:17:51.240Z,62.90
2023-03-29T15:20:54.878Z,62.20
2023-03-29T15:23:59.072Z,63.10
2023-03-29T15:27:15.475Z,63.30
2023-03-29T15:30:19.160Z,63.10
2023-03-29T15:33:23.474Z,61.90
2023-03-29T15:36:27.371Z,61.30
2023-03-29T15:39:29.889Z,61.20
2023-03-29T15:42:32.034Z,60.20
2023-03-29T15:45:34.160Z,60.20
2023-03-29T15:48:36.222Z,61.30
2023-03-29T15:51:38.489Z,61.80
2023-03-29T15:54:40.610Z,61.60
2023-03-29T15:57:47.286Z,61.70
2023-03-29T16:00:54.239Z,61.50
2023-03-29T16:03:59.383Z,61.90
2023-03-29T16:07:03.616Z,62.00
2023-03-29T16:10:06.581Z,62.60
2023-03-29T16:13:12.342Z,64.20
2023-03-29T16:16:14.427Z,64.50
2023-03-29T16:19:16.617Z,65.50
2023-03-29T16:22:18.803Z,66.00
2023-03-29T16:25:24.690Z,65.40
2023-03-29T16:28:26.706Z,65.80
2023-03-29T16:31:28.940Z,66.30
2023-03-29T16:34:31.389Z,66.50
2023-03-29T16:37:33.647Z,66.50
2023-03-29T16:40:36.493Z,66.70
2023-03-29T16:43:38.825Z,66.40
2023-03-29T16:46:41.697Z,66.90
2023-03-29T16:49:45.655Z,67.70
2023-03-29T16:52:48.863Z,68.70
2023-03-29T16:55:51.086Z,69.30
2023-03-29T16:58:53.071Z,70.10
2023-03-29T17:01:55.235Z,71.30
2023-03-29T17:04:57.649Z,71.30
2023-03-29T17:07:59.858Z,71.70
2023-03-29T17:11:03.137Z,72.80
2023-03-29T17:14:05.173Z,73.70
2023-03-29T17:17:07.172Z,74.10
2023-03-29T17:20:12.571Z,73.90
2023-03-29T17:23:14.685Z,74.30
2023-03-29T17:26:16.730Z,73.80
2023-03-29T17:29:18.881Z,73.10
2023-03-29T17:32:20.889Z,73.70
2023-03-29T17:35:23.201Z,74.20
2023-03-29T17:38:26.872Z,74.50
2023-03-29T17:41:30.841Z,74.20
2023-03-29T17:44:33.474Z,74.20
2023-03-29T17:47:36.525Z,75.40
2023-03-29T17:50:38.618Z,76.90
2023-03-29T17:53:40.683Z,76.80
2023-03-29T17:56:43.643Z,78.60
2023-03-29T17:59:45.640Z,79.20
2023-03-29T18:02:47.857Z,79.00
2023-03-29T18:05:49.981Z,78.80
2023-03-29T18:08:53.308Z,79.50
2023-03-29T18:11:55.510Z,80.50
2023-03-29T18:14:57.590Z,81.50
2023-03-29T18:17:59.722Z,82.00
2023-03-29T18:21:03.200Z,82.10
2023-03-29T18:24:05.295Z,83.00
2023-03-29T18:27:07.406Z,83.00
2023-03-29T18:30:10.004Z,83.50
2023-03-29T18:33:12.063Z,83.60
2023-03-29T18:36:14.763Z,83.70
2023-03-29T18:39:17.022Z,84.50
2023-03-29T18:42:21.945Z,85.00
2023-03-29T18:45:24.144Z,85.60
2023-03-29T18:48:26.535Z,85.90
2023-03-29T18:51:28.988Z,86.50
2023-03-29T18:54:31.543Z,86.50
2023-03-29T18:57:39.468Z,86.40
2023-03-29T19:00:42.491Z,88.40
2023-03-29T19:03:44.958Z,87.90
2023-03-29T19:06:49.415Z,89.10
2023-03-29T19:09:51.527Z,89.80
2023-03-29T19:12:53.502Z,88.80
2023-03-29T19:15:55.601Z,90.00
2023-03-29T19:18:57.610Z,90.10
2023-03-29T19:22:00.776Z,90.00
2023-03-29T19:25:05.755Z,90.30
2023-03-29T19:28:08.832Z,90.50
2023-03-29T19:31:10.960Z,90.30
2023-03-29T19:34:13.247Z,91.00
2023-03-29T19:37:17.031Z,91.00
2023-03-29T19:40:20.197Z,90.90
2023-03-29T19:43:22.322Z,91.00
2023-03-29T19:46:24.505Z,92.20
2023-03-29T19:49:27.573Z,91.80
2023-03-29T19:52:30.535Z,91.90
2023-03-29T19:55:32.559Z,92.20
2023-03-29T19:58:34.645Z,92.10
2023-03-29T20:01:39.454Z,92.50
2023-03-29T20:04:41.730Z,92.50
2023-03-29T20:07:44.112Z,92.80
2023-03-29T20:10:46.217Z,93.00
2023-03-29T20:13:48.231Z,93.40
2023-03-29T20:16:50.865Z,93.60
2023-03-29T20:19:54.075Z,93.90
2023-03-29T20:22:58.430Z,93.60
2023-03-29T20:26:03.293Z,93.60
2023-03-29T20:29:06.300Z,93.50
2023-03-29T20:32:17.123Z,93.40
2023-03-29T20:35:19.273Z,94.00
2023-03-29T20:38:22.072Z,93.40
2023-03-29T20:41:24.162Z,93.70
2023-03-29T20:44:28.503Z,94.10
2023-03-29T20:47:32.094Z,94.30
2023-03-29T20:50:34.257Z,94.30
2023-03-29T20:53:36.350Z,94.00
2023-03-29T20:56:42.318Z,94.30
2023-03-29T20:59:46.065Z,94.50
2023-03-29T21:02:48.232Z,94.40
2023-03-29T21:05:55.326Z,95.30
2023-03-29T21:08:57.541Z,95.20
2023-03-29T21:11:59.663Z,95.20
2023-03-29T21:15:02.507Z,95.60
2023-03-29T21:18:04.801Z,95.50
2023-03-29T21:21:08.433Z,96.10
2023-03-29T21:24:11.291Z,96.30
2023-03-29T21:27:13.347Z,96.20
2023-03-29T21:30:16.673Z,95.90
2023-03-29T21:33:18.759Z,96.20
2023-03-29T21:36:20.851Z,96.70
2023-03-29T21:39:28.446Z,96.70
2023-03-29T21:42:30.525Z,97.70
2023-03-29T21:45:32.776Z,97.10
2023-03-29T21:48:36.080Z,97.30
2023-03-29T21:51:38.213Z,97.00
2023-03-29T21:54:40.320Z,97.10
2023-03-29T21:57:42.533Z,96.80
2023-03-29T22:00:46.104Z,97.30
2023-03-29T22:03:48.635Z,97.50
2023-03-29T22:06:50.733Z,97.40
2023-03-29T22:09:52.740Z,97.20
2023-03-29T22:12:54.772Z,97.20
2023-03-29T22:16:01.400Z,97.80
2023-03-29T22:19:04.438Z,97.60
2023-03-29T22:22:06.800Z,97.70
2023-03-29T22:25:10.112Z,97.70
2023-03-29T22:28:13.704Z,97.70
2023-03-29T22:31:18.059Z,98.00
2023-03-29T22:34:19.964Z,98.10
2023-03-29T22:37:25.182Z,97.90
2023-03-29T22:40:27.270Z,98.20
2023-03-29T22:43:29.370Z,98.30
2023-03-29T22:46:31.875Z,98.30
2023-03-29T22:49:34.073Z,98.10
2023-03-29T22:52:36.120Z,98.50
2023-03-29T22:55:39.202Z,98.80
2023-03-29T22:58:42.383Z,99.50
2023-03-29T23:01:44.516Z,99.30
2023-03-29T23:04:47.658Z,99.50
2023-03-29T23:07:49.812Z,99.30
2023-03-29T23:10:54.134Z,99.50
2023-03-29T23:13:56.212Z,99.50
2023-03-29T23:16:58.369Z,99.30
2023-03-29T23:20:00.960Z,99.30
2023-03-29T23:23:03.110Z,99.30
2023-03-29T23:26:06.629Z,99.70
2023-03-29T23:29:09.441Z,99.50
2023-03-29T23:32:12.522Z,99.40
2023-03-29T23:35:15.907Z,99.50
2023-03-29T23:38:18.105Z,99.50
2023-03-29T23:41:20.523Z,99.40
2023-03-29T23:44:22.783Z,99.20
2023-03-29T23:47:27.115Z,99.20
2023-03-29T23:50:29.578Z,99.30
2023-03-29T23:53:32.178Z,99.50
2023-03-29T23:56:34.427Z,99.60
2023-03-29T23:59:38.018Z,99.50
